Forum : ABC ARBITRAGE
Date Sujet Auteur Dernier
01/03/17 14:41 6.66 vite un exorciste v.gehres carmen67 2 0
01/03/17 09:50 merci de me rappeller comment on b.giral jpboudin 1 0
28/02/17 10:25 6.68 j achete worsbunc j.carri5 9 0
27/02/17 17:01 Trump aime ABC flexmoul M6224191 1 0
27/02/17 09:10 kra..kra...krach ! flexmoul M1077042 4 0
23/02/17 16:39 BIZARRE j.carri5 j.carri5 3 1
23/02/17 08:04 Du mouvement sur le CAC ce jour flexmoul flexmoul 0 0
21/02/17 17:28 ABC ARBITRAGE - j ai ça en gros on viserai 7.7 worsbunc worsbunc 0 0
20/02/17 09:25 Gros agenda cette semaine flexmoul flexmoul 0 0
18/02/17 10:05 La volatilité flexmoul sommet3 3 1
17/02/17 10:45 Un peu de risque politique ... flexmoul flexmoul 0 0
14/02/17 09:41 salut a.roux : suis revenu , mon PF b.giral jpboudin 16 3
09/02/17 21:10 Hum, attaquée la petite.... v.gehres YPICSOU 4 0
08/02/17 15:13 le 23 Févier prochain, la valeur b.giral M6168691 1 0
01/02/17 15:49 Donald I love U flexmoul M6168691 1 0
01/02/17 15:23 ABC ARBITRAGE - ABC ARBITRAGE M1571166 flexmoul 3 1
01/02/17 11:41 Informations réglementées roux_a M6168691 4 1
27/01/17 13:06 rappelez-vous j.carri5 j.carri5 1 0
25/01/17 17:43 Arrivée imminente M249079 roux_a 2 0
24/01/17 11:52 il y a un gros problème ici AND.KOTE M6168691 2 0
20/01/17 15:56 Sortie drapeau baissier ? M1196955 gaudilla 8 0
20/01/17 11:49 risque volatilité ou opportunité 2017 M6168691 M6168691 1 0
18/01/17 20:27 L'impact des conseils d'INVESTIR gfoucaul M488902 23 4
16/01/17 21:13 la hausse aura été de courte AND.KOTE ravia 2 0
16/01/17 18:09 encore et toujours à la baisse AND.KOTE sommet3 3 0
13/01/17 16:14 La purge est fini ? M5062559 M6168691 8 0
12/01/17 20:37 Foutaises et volatilité elderwan M488902 5 0
10/01/17 15:41 Avis de forte volatilité en 2017 Xophe3 elderwan 2 0
10/01/17 11:09 Avis de forte volatilité en 2017 carmen67 M8637171 1 2
10/01/17 11:00 Avis de forte volatilité en 2017 M8637171 M8637171 0 0
10/01/17 10:47 Vous avez fait le plein ? roux_a M488902 19 2
09/01/17 12:15 Après la tempête M5062559 M6162927 2 0
09/01/17 10:45 dividende degrima jpboudin 17 2
09/01/17 10:40 le support tient ! M5062559 M1196955 24 0
09/01/17 10:24 robot j.carri5 j.carri5 0 0
09/01/17 10:12 bizare :baisse et volume best01 j.carri5 1 0
09/01/17 09:39 peut-être une raison de la baisse? gaucher2 jea.beau 16 1
09/01/17 09:14 c'est la deroute peut etre un beau AND.KOTE M8637171 2 0
09/01/17 08:26 le titre a été sorti ce jour dela AND.KOTE ibanez17 1 2
04/01/17 17:59 Cloture... M2584341 M2584341 0 0

Les sujets :

Sujet sans réponse.
Sujet principal faisant l'objet d'au moins une réponse.
Sujet comportant une analyse technique commentée.

Les autres icônes :

BoursoStar Expert
BoursoStar 3 étoiles
BoursoStar 2 étoiles
BoursoStar 1 étoiles
BoursoStar